Terminal Aerodrome Forecast
Issued by NWS

Home | Current Version | Previous Version | Text Only | Print | Product List | Glossary On
Versions: 1 2 3 4 5 6 7 8 9 10 11 12 13 14 15
000
FTUS45 KRIW 201100
TAFJAC
TAF
KJAC 201120Z 2012/2112 20007KT 4SM -SN FEW008 BKN016
     FM201400 18006KT P6SM VCSH SCT025 BKN045
     FM202100 18013KT 4SM -SN OVC025
     FM210700 19013KT 2SM -SN OVC015
      AMD LTD TO CLD VIS AND WIND=

USA.gov is the U.S. government's official web portal to all federal, state and local government web resources and services.